Terminal Aerodrome Forecast
Issued by NWS

Home | Current Version | Previous Version | Text Only | Print | Product List | Glossary On
Versions: 1 2 3 4 5 6 7 8 9 10 11 12 13 14 15 16 17 18 19 20 21 22 23 24 25 26 27 28 29 30 31 32 33 34 35 36 37 38 39 40
000
FTUS46 KPQR 120812 AAB
TAFONP
TAF AMD
KONP 120812Z 1208/1306 19006G14KT P6SM OVC030
     FM121500 21008KT 4SM -RA BR OVC020
     FM122200 22010KT 4SM BR OVC015
     FM130000 22012KT 4SM BR BKN250=

USA.gov is the U.S. government's official web portal to all federal, state and local government web resources and services.